createdAt,value
2022-11-23T00:01:34.414Z,5.17
2022-11-23T00:04:04.107Z,4.67
2022-11-23T00:06:34.409Z,7.10
2022-11-23T00:09:03.894Z,6.10
2022-11-23T00:11:32.501Z,8.00
2022-11-23T00:14:00.950Z,6.17
2022-11-23T00:16:32.091Z,6.60
2022-11-23T00:19:01.916Z,5.60
2022-11-23T00:21:31.240Z,4.77
2022-11-23T00:24:01.062Z,6.70
2022-11-23T00:26:29.890Z,7.30
2022-11-23T00:29:00.890Z,7.33
2022-11-23T00:31:30.646Z,4.50
2022-11-23T00:34:01.644Z,2.63
2022-11-23T00:36:30.132Z,7.37
2022-11-23T00:39:01.623Z,5.10
2022-11-23T00:41:32.694Z,5.00
2022-11-23T00:44:01.141Z,4.00
2022-11-23T00:46:32.029Z,4.33
2022-11-23T00:49:00.636Z,6.23
2022-11-23T00:51:31.146Z,6.63
2022-11-23T00:53:59.950Z,8.13
2022-11-23T00:56:28.720Z,5.80
2022-11-23T00:58:57.776Z,4.93
2022-11-23T01:01:27.304Z,3.37
2022-11-23T01:03:58.247Z,8.20
2022-11-23T01:06:31.431Z,6.20
2022-11-23T01:09:01.058Z,5.97
2022-11-23T01:11:31.317Z,6.50
2022-11-23T01:14:00.090Z,7.50
2022-11-23T01:16:29.702Z,4.40
2022-11-23T01:19:00.848Z,5.80
2022-11-23T01:21:29.949Z,5.70
2022-11-23T01:23:58.429Z,3.30
2022-11-23T01:26:27.154Z,7.30
2022-11-23T01:28:59.329Z,6.33
2022-11-23T01:31:27.905Z,3.13
2022-11-23T01:33:56.508Z,5.27
2022-11-23T01:36:27.240Z,5.70
2022-11-23T01:38:56.016Z,5.00
2022-11-23T01:41:25.563Z,3.47
2022-11-23T01:43:54.008Z,5.07
2022-11-23T01:46:22.711Z,4.93
2022-11-23T01:48:52.841Z,4.23
2022-11-23T01:51:23.554Z,5.70
2022-11-23T01:53:54.613Z,2.17
2022-11-23T01:56:28.282Z,5.70
2022-11-23T01:58:58.308Z,5.30
2022-11-23T02:01:29.142Z,6.77
2022-11-23T02:03:58.449Z,4.77
2022-11-23T02:06:27.031Z,7.33
2022-11-23T02:08:57.527Z,5.67
2022-11-23T02:11:26.780Z,4.17
2022-11-23T02:13:57.083Z,7.53
2022-11-23T02:16:25.516Z,3.90
2022-11-23T02:18:54.438Z,3.60
2022-11-23T02:21:23.814Z,4.20
2022-11-23T02:23:56.245Z,4.07
2022-11-23T02:26:27.563Z,5.17
2022-11-23T02:29:02.606Z,10.33
2022-11-23T02:31:37.174Z,5.00
2022-11-23T02:34:05.677Z,8.67
2022-11-23T02:36:38.526Z,5.13
2022-11-23T02:39:09.275Z,4.87
2022-11-23T02:41:40.485Z,4.43
2022-11-23T02:44:13.904Z,5.70
2022-11-23T02:46:44.305Z,6.00
2022-11-23T02:49:12.791Z,5.50
2022-11-23T02:51:41.202Z,7.37
2022-11-23T02:54:09.788Z,4.83
2022-11-23T02:56:40.612Z,4.77
2022-11-23T02:59:09.606Z,6.23
2022-11-23T03:01:39.940Z,4.33
2022-11-23T03:04:08.415Z,4.40
2022-11-23T03:06:36.888Z,4.00
2022-11-23T03:09:05.874Z,3.40
2022-11-23T03:11:34.479Z,5.80
2022-11-23T03:14:05.993Z,4.17
2022-11-23T03:16:43.276Z,3.80
2022-11-23T03:19:11.889Z,6.03
2022-11-23T03:21:40.418Z,5.33
2022-11-23T03:24:09.639Z,4.17
2022-11-23T03:26:38.948Z,7.00
2022-11-23T03:29:13.475Z,7.30
2022-11-23T03:31:43.288Z,5.47
2022-11-23T03:34:14.805Z,4.43
2022-11-23T03:36:43.236Z,6.43
2022-11-23T03:39:11.759Z,4.07
2022-11-23T03:41:52.194Z,4.90
2022-11-23T03:44:24.822Z,4.03
2022-11-23T03:46:53.320Z,7.57
2022-11-23T03:49:21.876Z,6.17
2022-11-23T03:51:51.501Z,8.47
2022-11-23T03:54:20.050Z,6.23
2022-11-23T03:56:49.954Z,4.97
2022-11-23T03:59:18.785Z,5.10
2022-11-23T04:01:49.353Z,5.40
2022-11-23T04:04:23.326Z,5.00
2022-11-23T04:07:21.350Z,4.73
2022-11-23T04:09:53.221Z,8.53
2022-11-23T04:12:30.266Z,5.80
2022-11-23T04:14:58.750Z,6.07
2022-11-23T04:17:28.521Z,7.23
2022-11-23T04:19:56.947Z,6.00
2022-11-23T04:22:26.008Z,6.63
2022-11-23T04:24:54.571Z,9.13
2022-11-23T04:27:23.685Z,8.83
2022-11-23T04:29:52.137Z,6.47
2022-11-23T04:32:21.198Z,5.77
2022-11-23T04:34:51.665Z,4.43
2022-11-23T04:37:20.127Z,8.77
2022-11-23T04:39:48.648Z,6.73
2022-11-23T04:42:31.102Z,5.23
2022-11-23T04:45:02.757Z,6.93
2022-11-23T04:47:32.756Z,8.47
2022-11-23T04:50:06.949Z,5.90
2022-11-23T04:52:35.593Z,4.83
2022-11-23T04:55:08.135Z,5.20
2022-11-23T04:57:43.868Z,12.23
2022-11-23T05:00:14.090Z,6.27
2022-11-23T05:02:42.910Z,7.03
2022-11-23T05:05:20.764Z,6.90
2022-11-23T05:07:49.540Z,5.30
2022-11-23T05:10:19.851Z,7.10
2022-11-23T05:12:49.283Z,5.97
2022-11-23T05:15:18.482Z,6.80
2022-11-23T05:17:47.403Z,5.47
2022-11-23T05:20:25.484Z,5.60
2022-11-23T05:22:54.027Z,5.23
2022-11-23T05:25:25.228Z,7.30
2022-11-23T05:28:11.466Z,6.67
2022-11-23T05:30:50.524Z,9.00
2022-11-23T05:33:19.758Z,5.27
2022-11-23T05:35:49.695Z,5.67
2022-11-23T05:38:21.050Z,5.70
2022-11-23T05:40:52.588Z,6.70
2022-11-23T05:43:21.266Z,9.33
2022-11-23T05:45:49.893Z,5.10
2022-11-23T05:48:19.585Z,5.87
2022-11-23T05:51:05.087Z,8.47
2022-11-23T05:53:40.307Z,5.00
2022-11-23T05:56:47.533Z,6.87
2022-11-23T05:59:22.095Z,4.97
2022-11-23T06:01:56.487Z,9.70
2022-11-23T06:04:30.576Z,5.77
2022-11-23T06:07:02.043Z,7.50
2022-11-23T06:09:44.858Z,7.20
2022-11-23T06:12:13.699Z,6.93
2022-11-23T06:14:42.307Z,7.23
2022-11-23T06:17:27.524Z,7.37
2022-11-23T06:20:03.382Z,10.37
2022-11-23T06:22:36.152Z,7.47
2022-11-23T06:25:07.374Z,8.17
2022-11-23T06:27:45.214Z,9.50
2022-11-23T06:30:22.566Z,7.27
2022-11-23T06:32:51.107Z,5.77
2022-11-23T06:35:21.720Z,9.20
2022-11-23T06:37:53.700Z,10.03
2022-11-23T06:40:22.404Z,8.50
2022-11-23T06:42:51.279Z,4.57
2022-11-23T06:45:27.263Z,6.57
2022-11-23T06:48:00.911Z,10.53
2022-11-23T06:50:31.898Z,12.37
2022-11-23T06:53:02.371Z,9.90
2022-11-23T06:55:42.943Z,12.27
2022-11-23T06:58:13.060Z,12.10
2022-11-23T07:00:42.760Z,12.53
2022-11-23T07:03:14.341Z,6.73
2022-11-23T07:05:44.941Z,8.00
2022-11-23T07:08:15.438Z,6.13
2022-11-23T07:10:44.315Z,8.47
2022-11-23T07:13:16.639Z,6.80
2022-11-23T07:15:45.513Z,6.97
2022-11-23T07:18:14.494Z,6.70
2022-11-23T07:20:49.632Z,7.07
2022-11-23T07:23:19.745Z,6.47
2022-11-23T07:25:48.371Z,5.30
2022-11-23T07:28:18.292Z,5.20
2022-11-23T07:30:46.772Z,7.63
2022-11-23T07:33:16.778Z,8.73
2022-11-23T07:35:46.293Z,6.80
2022-11-23T07:38:14.801Z,8.90
2022-11-23T07:40:46.024Z,4.83
2022-11-23T07:43:25.728Z,10.23
2022-11-23T07:45:57.224Z,9.80
2022-11-23T07:48:26.204Z,7.03
2022-11-23T07:50:54.923Z,7.60
2022-11-23T07:53:23.793Z,7.60
2022-11-23T07:55:56.739Z,6.07
2022-11-23T07:58:25.466Z,7.67
2022-11-23T08:00:54.246Z,8.57
2022-11-23T08:03:30.533Z,7.97
2022-11-23T08:05:59.432Z,6.97
2022-11-23T08:08:28.897Z,7.77
2022-11-23T08:10:58.679Z,7.20
2022-11-23T08:13:27.111Z,6.83
2022-11-23T08:15:56.183Z,6.47
2022-11-23T08:18:25.074Z,10.57
2022-11-23T08:20:53.475Z,7.87
2022-11-23T08:23:22.378Z,9.63
2022-11-23T08:25:50.992Z,7.93
2022-11-23T08:28:21.114Z,7.00
2022-11-23T08:30:49.711Z,6.53
2022-11-23T08:33:18.149Z,8.03
2022-11-23T08:35:46.606Z,5.30
2022-11-23T08:38:15.160Z,8.07
2022-11-23T08:40:43.675Z,5.90
2022-11-23T08:43:12.159Z,4.93
2022-11-23T08:45:41.959Z,9.93
2022-11-23T08:48:14.595Z,8.13
2022-11-23T08:50:44.494Z,6.03
2022-11-23T08:53:13.156Z,8.13
2022-11-23T08:55:41.782Z,8.47
2022-11-23T08:58:13.336Z,7.87
2022-11-23T09:00:43.542Z,6.90
2022-11-23T09:03:12.061Z,4.20
2022-11-23T09:05:40.476Z,4.67
2022-11-23T09:08:09.114Z,4.37
2022-11-23T09:10:37.700Z,5.60
2022-11-23T09:13:06.406Z,6.63
2022-11-23T09:15:34.836Z,3.77
2022-11-23T09:18:04.656Z,4.33
2022-11-23T09:20:33.090Z,9.73
2022-11-23T09:23:01.669Z,4.87
2022-11-23T09:25:30.120Z,2.93
2022-11-23T09:28:00.145Z,4.07
2022-11-23T09:30:28.659Z,3.60
2022-11-23T09:32:57.972Z,3.73
2022-11-23T09:35:27.870Z,6.93
2022-11-23T09:37:59.380Z,4.50
2022-11-23T09:40:30.442Z,3.70
2022-11-23T09:43:12.647Z,4.37
2022-11-23T09:45:43.671Z,5.57
2022-11-23T09:48:30.043Z,3.17
2022-11-23T09:51:02.415Z,4.70
2022-11-23T09:53:35.367Z,5.60
2022-11-23T09:56:03.973Z,4.97
2022-11-23T09:58:35.783Z,6.13
2022-11-23T10:01:05.824Z,6.27
2022-11-23T10:03:37.157Z,7.63
2022-11-23T10:06:09.581Z,5.93
2022-11-23T10:08:45.794Z,6.83
2022-11-23T10:11:27.067Z,7.73
2022-11-23T10:14:02.484Z,6.13
2022-11-23T10:16:36.505Z,6.83
2022-11-23T10:19:07.374Z,11.13
2022-11-23T10:21:41.710Z,7.57
2022-11-23T10:24:19.328Z,8.27
2022-11-23T10:26:49.740Z,4.00
2022-11-23T10:29:22.423Z,5.37
2022-11-23T10:31:56.808Z,4.93
2022-11-23T10:34:28.242Z,3.43
2022-11-23T10:36:58.391Z,5.50
2022-11-23T10:39:27.561Z,7.40
2022-11-23T10:42:01.883Z,5.33
2022-11-23T10:44:35.009Z,3.07
2022-11-23T10:47:04.016Z,4.63
2022-11-23T10:49:33.307Z,6.60
2022-11-23T10:52:05.527Z,2.90
2022-11-23T10:54:36.085Z,3.83
2022-11-23T10:57:05.852Z,4.87
2022-11-23T10:59:36.007Z,2.57
2022-11-23T11:02:13.089Z,3.70
2022-11-23T11:04:41.546Z,4.47
2022-11-23T11:07:33.603Z,3.30
2022-11-23T11:10:03.273Z,5.67
2022-11-23T11:12:34.715Z,5.43
2022-11-23T11:15:11.318Z,5.60
2022-11-23T11:17:44.015Z,4.53
2022-11-23T11:20:38.166Z,3.37
2022-11-23T11:23:17.686Z,3.20
2022-11-23T11:25:46.538Z,10.07
2022-11-23T11:28:22.520Z,6.53
2022-11-23T11:30:58.380Z,5.17
2022-11-23T11:33:33.320Z,7.83
2022-11-23T11:36:05.761Z,3.50
2022-11-23T11:38:37.557Z,2.97
2022-11-23T11:41:09.075Z,4.67
2022-11-23T11:43:40.565Z,3.80
2022-11-23T11:46:29.683Z,4.53
2022-11-23T11:49:01.945Z,5.50
2022-11-23T11:51:33.971Z,3.53
2022-11-23T11:54:07.547Z,5.03
2022-11-23T11:56:38.101Z,3.17
2022-11-23T11:59:12.751Z,5.23
2022-11-23T12:01:44.288Z,8.77
2022-11-23T12:04:16.132Z,2.33
2022-11-23T12:06:48.918Z,2.23
2022-11-23T12:09:21.598Z,4.67
2022-11-23T12:11:50.209Z,3.57
2022-11-23T12:14:18.920Z,4.93
2022-11-23T12:17:17.055Z,3.43
2022-11-23T12:19:42.020Z,2.37
2022-11-23T12:22:21.363Z,3.10
2022-11-23T12:24:56.764Z,5.03
2022-11-23T12:27:31.057Z,4.00
2022-11-23T12:30:05.196Z,3.90
2022-11-23T12:32:39.104Z,2.90
2022-11-23T12:35:16.364Z,2.30
2022-11-23T12:37:52.653Z,3.67
2022-11-23T12:40:26.761Z,3.23
2022-11-23T12:42:58.726Z,3.67
2022-11-23T12:45:31.681Z,3.97
2022-11-23T12:48:04.243Z,3.93
2022-11-23T12:50:36.612Z,3.03
2022-11-23T12:53:10.309Z,7.27
2022-11-23T12:55:47.669Z,6.03
2022-11-23T12:58:21.554Z,3.97
2022-11-23T13:00:51.896Z,3.77
2022-11-23T13:03:41.001Z,6.30
2022-11-23T13:06:20.602Z,3.60
2022-11-23T13:08:57.179Z,4.53
2022-11-23T13:11:32.553Z,3.20
2022-11-23T13:14:10.967Z,3.20
2022-11-23T13:16:44.414Z,1.70
2022-11-23T13:19:26.232Z,3.93
2022-11-23T13:21:55.475Z,4.30
2022-11-23T13:24:28.453Z,2.87
2022-11-23T13:27:15.629Z,1.50
2022-11-23T13:30:00.661Z,3.60
2022-11-23T13:32:36.012Z,2.67
2022-11-23T13:35:04.652Z,3.43
2022-11-23T13:37:34.346Z,2.97
2022-11-23T13:40:03.937Z,2.13
2022-11-23T13:42:36.986Z,4.90
2022-11-23T13:45:24.259Z,2.43
2022-11-23T13:48:34.719Z,4.27
2022-11-23T13:51:03.445Z,1.53
2022-11-23T13:53:33.990Z,4.63
2022-11-23T13:56:18.160Z,3.73
2022-11-23T13:58:54.040Z,1.43
2022-11-23T14:01:41.133Z,1.97
2022-11-23T14:04:27.503Z,2.27
2022-11-23T14:06:58.821Z,2.00
2022-11-23T14:09:29.933Z,2.67
2022-11-23T14:12:03.061Z,3.30
2022-11-23T14:14:35.401Z,3.00
2022-11-23T14:17:15.998Z,4.07
2022-11-23T14:19:50.564Z,5.60
2022-11-23T14:22:24.494Z,1.47
2022-11-23T14:25:02.279Z,1.63
2022-11-23T14:27:47.249Z,3.43
2022-11-23T14:30:25.823Z,3.70
2022-11-23T14:33:04.214Z,3.87
2022-11-23T14:35:34.786Z,2.80
2022-11-23T14:38:21.201Z,6.37
2022-11-23T14:40:55.099Z,3.47
2022-11-23T14:43:23.914Z,5.73
2022-11-23T14:45:52.904Z,3.80
2022-11-23T14:48:25.169Z,3.60
2022-11-23T14:50:58.054Z,7.57
2022-11-23T14:53:29.345Z,2.90
2022-11-23T14:55:59.556Z,3.17
2022-11-23T14:58:30.460Z,3.43
2022-11-23T15:01:03.435Z,4.30
2022-11-23T15:03:50.052Z,6.23
2022-11-23T15:06:24.285Z,4.17
2022-11-23T15:08:55.399Z,4.37
2022-11-23T15:11:28.611Z,4.90
2022-11-23T15:14:03.186Z,2.43
2022-11-23T15:16:31.834Z,5.53
2022-11-23T15:19:00.390Z,3.80
2022-11-23T15:21:29.401Z,5.30
2022-11-23T15:24:00.186Z,5.03
2022-11-23T15:26:48.904Z,4.77
2022-11-23T15:29:34.908Z,3.50
2022-11-23T15:32:29.410Z,4.00
2022-11-23T15:34:53.689Z,4.40
2022-11-23T15:37:23.383Z,2.50
2022-11-23T15:39:52.441Z,3.80
2022-11-23T15:42:23.905Z,4.70
2022-11-23T15:44:54.230Z,4.27
2022-11-23T15:47:27.292Z,4.07
2022-11-23T15:49:59.716Z,5.80
2022-11-23T15:52:29.715Z,5.37
2022-11-23T15:54:58.435Z,3.73
2022-11-23T15:57:28.333Z,4.87
2022-11-23T15:59:58.071Z,3.40
2022-11-23T16:02:31.121Z,3.57
2022-11-23T16:05:07.411Z,5.37
2022-11-23T16:07:36.153Z,6.73
2022-11-23T16:10:11.168Z,6.07
2022-11-23T16:12:50.046Z,6.17
2022-11-23T16:15:32.740Z,6.23
2022-11-23T16:18:01.521Z,7.23
2022-11-23T16:20:32.789Z,5.70
2022-11-23T16:23:02.089Z,3.90
2022-11-23T16:25:32.420Z,5.33
2022-11-23T16:28:06.124Z,8.40
2022-11-23T16:30:37.701Z,7.17
2022-11-23T16:33:06.467Z,7.50
2022-11-23T16:35:37.700Z,7.07
2022-11-23T16:38:07.351Z,5.03
2022-11-23T16:40:35.972Z,5.40
2022-11-23T16:43:05.940Z,6.87
2022-11-23T16:45:34.649Z,4.83
2022-11-23T16:48:03.917Z,3.73
2022-11-23T16:50:33.169Z,5.47
2022-11-23T16:53:03.134Z,8.43
2022-11-23T16:55:32.260Z,5.50
2022-11-23T16:58:00.716Z,5.40
2022-11-23T17:00:30.924Z,7.30
2022-11-23T17:02:59.477Z,6.40
2022-11-23T17:05:27.927Z,8.60
2022-11-23T17:07:56.421Z,7.47
2022-11-23T17:10:25.288Z,8.37
2022-11-23T17:12:55.490Z,5.50
2022-11-23T17:15:25.061Z,12.47
2022-11-23T17:17:54.935Z,9.67
2022-11-23T17:20:24.666Z,6.00
2022-11-23T17:22:56.508Z,9.73
2022-11-23T17:25:24.955Z,8.90
2022-11-23T17:27:53.513Z,9.80
2022-11-23T17:30:23.438Z,8.07
2022-11-23T17:32:52.065Z,9.43
2022-11-23T17:35:22.149Z,8.63
2022-11-23T17:37:50.713Z,8.07
2022-11-23T17:40:21.090Z,9.77
2022-11-23T17:42:49.797Z,9.67
2022-11-23T17:45:18.303Z,8.70
2022-11-23T17:47:46.892Z,8.87
2022-11-23T17:50:17.641Z,8.77
2022-11-23T17:52:48.095Z,12.40
2022-11-23T17:55:17.532Z,8.20
2022-11-23T17:57:46.141Z,13.17
2022-11-23T18:00:17.983Z,9.30
2022-11-23T18:02:46.487Z,7.93
2022-11-23T18:05:20.843Z,5.63
2022-11-23T18:07:51.580Z,11.77
2022-11-23T18:10:20.326Z,9.23
2022-11-23T18:12:49.012Z,11.00
2022-11-23T18:15:17.568Z,8.53
2022-11-23T18:17:50.887Z,10.60
2022-11-23T18:20:19.321Z,9.90
2022-11-23T18:22:48.056Z,9.90
2022-11-23T18:25:18.174Z,9.17
2022-11-23T18:27:46.596Z,6.07
2022-11-23T18:30:15.501Z,7.87
2022-11-23T18:32:43.999Z,7.63
2022-11-23T18:35:12.439Z,5.80
2022-11-23T18:37:40.935Z,9.00
2022-11-23T18:40:10.016Z,9.80
2022-11-23T18:42:39.828Z,6.80
2022-11-23T18:45:09.578Z,14.33
2022-11-23T18:47:38.094Z,13.93
2022-11-23T18:50:07.099Z,11.63
2022-11-23T18:52:35.805Z,6.80
2022-11-23T18:55:04.245Z,10.60
2022-11-23T18:57:32.685Z,11.37
2022-11-23T19:00:02.741Z,11.40
2022-11-23T19:02:31.740Z,10.93
2022-11-23T19:05:00.228Z,11.77
2022-11-23T19:07:28.821Z,12.10
2022-11-23T19:09:58.450Z,6.53
2022-11-23T19:12:26.884Z,4.97
2022-11-23T19:14:55.294Z,7.73
2022-11-23T19:17:25.046Z,5.90
2022-11-23T19:19:53.540Z,4.37
2022-11-23T19:22:21.957Z,2.83
2022-11-23T19:24:50.402Z,6.47
2022-11-23T19:27:18.952Z,3.00
2022-11-23T19:29:47.710Z,4.07
2022-11-23T19:32:16.147Z,3.57
2022-11-23T19:34:45.929Z,3.10
2022-11-23T19:37:14.324Z,4.73
2022-11-23T19:39:42.759Z,5.30
2022-11-23T19:42:11.156Z,5.13
2022-11-23T19:44:39.628Z,3.23
2022-11-23T19:47:15.367Z,3.70
2022-11-23T19:49:48.172Z,2.50
2022-11-23T19:52:16.784Z,4.13
2022-11-23T19:54:45.356Z,3.07
2022-11-23T19:57:13.920Z,3.13
2022-11-23T19:59:44.641Z,2.80
2022-11-23T20:02:22.444Z,3.60
2022-11-23T20:04:52.869Z,5.83
2022-11-23T20:07:21.600Z,3.23
2022-11-23T20:09:50.161Z,4.03
2022-11-23T20:12:18.557Z,2.43
2022-11-23T20:14:47.056Z,1.77
2022-11-23T20:17:15.646Z,2.43
2022-11-23T20:19:44.065Z,2.90
2022-11-23T20:22:13.876Z,3.63
2022-11-23T20:24:42.381Z,2.77
2022-11-23T20:27:10.801Z,5.10
2022-11-23T20:29:40.304Z,5.97
2022-11-23T20:32:08.867Z,7.00
2022-11-23T20:34:37.550Z,5.43
2022-11-23T20:37:07.663Z,4.40
2022-11-23T20:39:37.501Z,3.50
2022-11-23T20:42:06.201Z,4.60
2022-11-23T20:44:34.740Z,5.23
2022-11-23T20:47:03.942Z,7.67
2022-11-23T20:49:33.042Z,5.20
2022-11-23T20:52:01.838Z,8.73
2022-11-23T20:54:30.416Z,8.70
2022-11-23T20:57:00.722Z,8.60
2022-11-23T20:59:29.536Z,7.17
2022-11-23T21:01:58.091Z,9.87
2022-11-23T21:04:27.015Z,6.57
2022-11-23T21:06:55.653Z,4.47
2022-11-23T21:09:24.174Z,8.13
2022-11-23T21:12:10.199Z,10.40
2022-11-23T21:14:40.204Z,7.00
2022-11-23T21:17:36.954Z,5.93
2022-11-23T21:20:12.217Z,5.23
2022-11-23T21:22:40.647Z,6.53
2022-11-23T21:25:09.581Z,7.57
2022-11-23T21:27:38.001Z,7.73
2022-11-23T21:30:08.618Z,8.00
2022-11-23T21:32:37.133Z,5.87
2022-11-23T21:35:06.029Z,9.13
2022-11-23T21:37:35.087Z,7.03
2022-11-23T21:40:03.783Z,7.50
2022-11-23T21:42:33.756Z,8.03
2022-11-23T21:45:02.779Z,6.67
2022-11-23T21:47:32.536Z,8.60
2022-11-23T21:50:01.464Z,8.63
2022-11-23T21:52:30.942Z,9.10
2022-11-23T21:55:07.459Z,10.33
2022-11-23T21:57:35.963Z,9.00
2022-11-23T22:00:04.539Z,8.50
2022-11-23T22:02:41.939Z,7.97
2022-11-23T22:05:10.638Z,10.27
2022-11-23T22:07:39.874Z,12.17
2022-11-23T22:10:10.429Z,11.33
2022-11-23T22:12:40.565Z,10.20
2022-11-23T22:15:12.172Z,11.03
2022-11-23T22:17:42.431Z,9.97
2022-11-23T22:20:11.980Z,12.37
2022-11-23T22:22:40.570Z,9.80
2022-11-23T22:25:10.021Z,7.37
2022-11-23T22:27:38.544Z,9.67
2022-11-23T22:30:08.546Z,8.73
2022-11-23T22:32:37.250Z,7.03
2022-11-23T22:35:08.420Z,7.80
2022-11-23T22:37:36.970Z,8.60
2022-11-23T22:40:07.776Z,6.37
2022-11-23T22:42:37.382Z,8.77
2022-11-23T22:45:06.032Z,6.80
2022-11-23T22:47:34.897Z,9.40
2022-11-23T22:50:07.916Z,8.50
2022-11-23T22:52:36.576Z,8.83
2022-11-23T22:55:05.370Z,7.97
2022-11-23T22:57:34.245Z,5.40
2022-11-23T23:00:02.718Z,7.37
2022-11-23T23:02:33.161Z,8.57
2022-11-23T23:05:01.817Z,6.07
2022-11-23T23:07:31.838Z,6.83
2022-11-23T23:10:00.320Z,7.03
2022-11-23T23:12:28.764Z,6.57
2022-11-23T23:14:57.184Z,6.37
2022-11-23T23:17:25.571Z,12.60
2022-11-23T23:19:54.465Z,7.13
2022-11-23T23:22:23.118Z,8.57
2022-11-23T23:24:54.146Z,11.97
2022-11-23T23:27:22.882Z,6.73
2022-11-23T23:29:52.066Z,7.67
2022-11-23T23:32:20.840Z,9.07
2022-11-23T23:34:49.283Z,7.40
2022-11-23T23:37:17.676Z,6.43
2022-11-23T23:39:46.256Z,8.70
2022-11-23T23:42:16.032Z,5.63
2022-11-23T23:44:44.585Z,7.07
2022-11-23T23:47:13.062Z,5.93
2022-11-23T23:49:41.506Z,8.77
2022-11-23T23:52:09.936Z,7.77
2022-11-23T23:54:38.353Z,12.20
2022-11-23T23:57:06.833Z,7.77
2022-11-23T23:59:36.639Z,9.30
